Seaspan Swift — CFCV — position and weather

sailwx.info

Track history (hours):
 
Tides and Currents Weather Stations Pressure Air Temp Water Temp Dewpoint Dewpoint Depression Visibility Wind Speed Wind Dir Waves Ship Positions

Seaspan Swift

Last reported at 2017-Dec-15 14:00 UTC. Time now 2017-Dec-15 14:26 UTC.
Position N 48°41' W 123°24'.

Length 150 m; draft 4.2 m.

Type: Cargo ship. MMSI: 316033419.

Date/timePositionNaut miles runAvg speedWind from/ knotsBaromVisibWave heightAir tempDewpointWater temp
2017-Dec-15 14:00N 48°41' W 123°24'0 0.0
2017-Dec-15 13:30N 48°41' W 123°24'3 6.1
2017-Dec-15 13:00N 48°43' W 123°21'714.9
2017-Dec-15 12:31N 48°51' W 123°21'612.0
2017-Dec-15 12:00N 48°56' W 123°19'714.2
2017-Dec-15 11:30N 49°04' W 123°21'612.9
2017-Dec-15 11:00N 49°08' W 123°13'612.0
2017-Dec-15 10:30N 49°08' W 123°04'2 3.2
2017-Dec-15 10:00N 49°09' W 123°02'0 0.0
2017-Dec-15 09:30N 49°09' W 123°02'0 0.0
2017-Dec-15 09:00N 49°09' W 123°02'0 0.0
2017-Dec-15 08:30N 49°09' W 123°02'2 4.2
2017-Dec-15 08:00N 49°07' W 123°05'510.6
2017-Dec-15 07:30N 49°08' W 123°13'610.9
2017-Dec-15 07:00N 49°06' W 123°21'714.7
2017-Dec-15 06:30N 49°09' W 123°31'814.9
2017-Dec-15 05:59N 49°12' W 123°42'2 0.5
2017-Dec-15 02:30N 49°13' W 123°41'2114.0
2017-Dec-15 01:01N 49°07' W 123°10'611.0
2017-Dec-15 00:30N 49°09' W 123°02'31 5.2
2017-Dec-14 18:30N 48°41' W 123°24'0 0.0
2017-Dec-14 18:00N 48°41' W 123°24'0 0.0
2017-Dec-14 17:30N 48°41' W 123°24'0 0.0
2017-Dec-14 17:00N 48°41' W 123°24'0 0.0
2017-Dec-14 16:30N 48°41' W 123°24'0 0.0
2017-Dec-14 16:00N 48°41' W 123°24'0 0.0
2017-Dec-14 15:00N 48°41' W 123°24'0 0.0
2017-Dec-14 14:30N 48°41' W 123°24'0 0.0
2017-Dec-14 14:00N 48°41' W 123°24'0 0.0
2017-Dec-14 13:30N 48°41' W 123°24'0 0.8
2017-Dec-14 13:00N 48°41' W 123°24'5 9.9
2017-Dec-14 12:30N 48°46' W 123°21'611.7
2017-Dec-14 12:00N 48°52' W 123°19'815.0
2017-Dec-14 11:30N 48°59' W 123°19'714.0
2017-Dec-14 11:00N 49°06' W 123°18'612.7
2017-Dec-14 10:30N 49°07' W 123°09'5 9.5
2017-Dec-14 10:00N 49°09' W 123°02'0 0.0
2017-Dec-14 09:30N 49°09' W 123°02'0 0.0
2017-Dec-14 09:00N 49°09' W 123°02'0 0.0
2017-Dec-14 08:30N 49°09' W 123°02'1 1.2
2017-Dec-14 08:00N 49°08' W 123°03'611.1
2017-Dec-14 07:29N 49°07' W 123°11'611.9
2017-Dec-14 07:00N 49°06' W 123°20'714.8
2017-Dec-14 06:30N 49°09' W 123°30'815.0
2017-Dec-14 06:00N 49°11' W 123°41'714.2
2017-Dec-14 05:30N 49°12' W 123°52'4 7.3
2017-Dec-14 05:00N 49°09' W 123°52'0 0.0
2017-Dec-14 03:43N 49°09' W 123°52'1 1.9
2017-Dec-14 03:19N 49°09' W 123°53'510.7
2017-Dec-14 02:52N 49°13' W 123°48'514.4
2017-Dec-14 02:30N 49°12' W 123°40'613.1
2017-Dec-14 02:00N 49°10' W 123°31'713.9
2017-Dec-14 01:30N 49°07' W 123°22'713.7
2017-Dec-14 01:00N 49°07' W 123°11'612.3
2017-Dec-14 00:30N 49°09' W 123°02'0 0.2
2017-Dec-14 00:00N 49°09' W 123°02'0 0.0
2017-Dec-13 23:30N 49°09' W 123°02'0 0.0
2017-Dec-13 23:00N 49°09' W 123°02'3 5.1
2017-Dec-13 22:30N 49°07' W 123°05'714.2
2017-Dec-13 22:00N 49°07' W 123°16'611.9
2017-Dec-13 21:30N 49°01' W 123°18'815.1
2017-Dec-13 21:00N 48°54' W 123°18'510.6
2017-Dec-13 20:30N 48°49' W 123°20'714.1
2017-Dec-13 20:00N 48°42' W 123°22'2 3.1
2017-Dec-13 19:30N 48°41' W 123°24'0 0.0
2017-Dec-13 19:00N 48°41' W 123°24'0 0.0
2017-Dec-13 18:31N 48°41' W 123°24'0 0.0
2017-Dec-13 18:00N 48°41' W 123°24'0 0.0
2017-Dec-13 17:30N 48°41' W 123°24'0 0.0
2017-Dec-13 17:00N 48°41' W 123°24'0 0.0
2017-Dec-13 16:30N 48°41' W 123°24'0 0.0
2017-Dec-13 16:00N 48°41' W 123°24'0 0.0
2017-Dec-13 15:30N 48°41' W 123°24'0 0.0
2017-Dec-13 15:00N 48°41' W 123°24'0 0.0
2017-Dec-13 14:30N 48°41' W 123°24'0 0.0
2017-Dec-13 14:00N 48°41' W 123°24'0 0.0
2017-Dec-13 13:30N 48°41' W 123°24'1 1.3
2017-Dec-13 13:00N 48°42' W 123°23'611.8
2017-Dec-13 12:31N 48°47' W 123°21'612.8
2017-Dec-13 12:00N 48°53' W 123°18'815.1
2017-Dec-13 11:31N 49°01' W 123°20'713.0
2017-Dec-13 11:00N 49°07' W 123°17'713.3
2017-Dec-13 10:30N 49°07' W 123°07'4 7.2
2017-Dec-13 10:00N 49°09' W 123°02'0 0.0
2017-Dec-13 09:30N 49°09' W 123°02'0 0.0
2017-Dec-13 09:00N 49°09' W 123°02'0 0.0
2017-Dec-13 08:30N 49°09' W 123°02'0 0.3
2017-Dec-13 08:00N 49°09' W 123°02'510.1
2017-Dec-13 07:30N 49°06' W 123°09'611.7
2017-Dec-13 07:00N 49°06' W 123°18'713.7
2017-Dec-13 06:30N 49°08' W 123°28'814.6
2017-Dec-13 05:57N 49°11' W 123°40'8 5.0
2017-Dec-13 04:15N 49°09' W 123°52'0 0.2
2017-Dec-13 03:22N 49°09' W 123°52'5 9.6
2017-Dec-13 02:52N 49°13' W 123°49'614.2
2017-Dec-13 02:29N 49°12' W 123°41'714.2
2017-Dec-13 02:00N 49°09' W 123°31'714.1
2017-Dec-13 01:31N 49°07' W 123°21'714.2
2017-Dec-13 01:00N 49°07' W 123°10'611.4
2017-Dec-13 00:30N 49°09' W 123°02'0 0.2
2017-Dec-13 00:00N 49°09' W 123°02'0 0.0
2017-Dec-12 23:30N 49°09' W 123°02'0 0.0
2017-Dec-12 23:00N 49°09' W 123°02'2 3.0
2017-Dec-12 22:30N 49°08' W 123°04'713.4
2017-Dec-12 22:00N 49°08' W 123°14'611.8
2017-Dec-12 21:30N 49°03' W 123°19'815.1
2017-Dec-12 21:00N 48°55' W 123°18'510.9
2017-Dec-12 20:30N 48°50' W 123°21'714.6
2017-Dec-12 20:00N 48°43' W 123°21'3 1.5
2017-Dec-12 18:14N 48°41' W 123°24'0 0.0
2017-Dec-12 17:55N 48°41' W 123°24'0 0.0
2017-Dec-12 16:59N 48°41' W 123°24'0 0.0
2017-Dec-12 16:17N 48°41' W 123°24'0 0.0
2017-Dec-12 15:59N 48°41' W 123°24'0 0.0
2017-Dec-12 15:26N 48°41' W 123°24'0 0.0
2017-Dec-12 13:24N 48°41' W 123°24'1 3.9
2017-Dec-12 13:01N 48°42' W 123°22'714.0
2017-Dec-12 12:30N 48°49' W 123°21'611.6
2017-Dec-12 12:00N 48°54' W 123°18'714.1
2017-Dec-12 11:30N 49°01' W 123°20'713.1
2017-Dec-12 11:00N 49°07' W 123°16'713.9
2017-Dec-12 10:30N 49°07' W 123°06'3 5.8
2017-Dec-12 10:00N 49°09' W 123°02'0 0.0
2017-Dec-12 09:29N 49°09' W 123°02'0 0.0
2017-Dec-12 09:00N 49°09' W 123°02'0 0.0
2017-Dec-12 08:30N 49°09' W 123°02'3 5.4
2017-Dec-12 08:00N 49°07' W 123°05'612.2
2017-Dec-12 07:30N 49°08' W 123°15'612.0
2017-Dec-12 07:00N 49°07' W 123°24'713.8
2017-Dec-12 06:30N 49°10' W 123°34'713.8
2017-Dec-12 06:00N 49°12' W 123°44'6 3.2
2017-Dec-12 03:57N 49°09' W 123°52'5 4.9
2017-Dec-12 02:52N 49°13' W 123°48'513.5
2017-Dec-12 02:29N 49°12' W 123°40'613.6
2017-Dec-12 02:01N 49°10' W 123°31'713.6
2017-Dec-12 01:31N 49°07' W 123°22'713.1
2017-Dec-12 01:00N 49°07' W 123°12'612.6
2017-Dec-12 00:30N 49°09' W 123°02'0 0.4
2017-Dec-12 00:00N 49°09' W 123°02'0 0.0
2017-Dec-11 23:30N 49°09' W 123°02'0 0.0
2017-Dec-11 23:00N 49°09' W 123°02'4 7.2
2017-Dec-11 22:31N 49°07' W 123°07'612.6
2017-Dec-11 22:00N 49°07' W 123°16'510.5
2017-Dec-11 21:30N 49°02' W 123°17'714.7
2017-Dec-11 21:00N 48°54' W 123°18'510.5
2017-Dec-11 20:30N 48°49' W 123°20'714.4
2017-Dec-11 20:00N 48°42' W 123°22'2 4.0
2017-Dec-11 19:30N 48°41' W 123°24'0 0.0
2017-Dec-11 18:59N 48°41' W 123°24'0 0.0
2017-Dec-11 18:29N 48°41' W 123°24'0 0.0
2017-Dec-11 16:45N 48°41' W 123°24'0 0.0
2017-Dec-11 15:28N 48°41' W 123°24'0 0.0
2017-Dec-11 14:43N 48°41' W 123°24'0 0.0
2017-Dec-11 14:15N 48°41' W 123°24'0 0.0
2017-Dec-11 13:29N 48°41' W 123°24'0 0.0
2017-Dec-11 12:59N 48°41' W 123°24'0 0.0
2017-Dec-11 12:24N 48°41' W 123°24'0 0.0
2017-Dec-11 11:53N 48°41' W 123°24'0 0.0
2017-Dec-11 11:30N 48°41' W 123°24'0 0.8
2017-Dec-11 10:54N 48°42' W 123°24'410.3
2017-Dec-11 10:30N 48°45' W 123°21'612.7
2017-Dec-11 10:00N 48°51' W 123°21'611.6
2017-Dec-11 09:30N 48°57' W 123°18'612.7
2017-Dec-11 09:00N 49°03' W 123°19'612.6
2017-Dec-11 08:30N 49°08' W 123°13'612.9
2017-Dec-11 08:01N 49°08' W 123°03'1 2.1
2017-Dec-11 07:30N 49°09' W 123°02'0 0.0
2017-Dec-11 07:00N 49°09' W 123°02'0 0.0
2017-Dec-11 06:30N 49°09' W 123°02'0 0.0
2017-Dec-11 06:00N 49°09' W 123°02'0 0.0
2017-Dec-11 05:30N 49°09' W 123°02'0 0.0
2017-Dec-11 05:00N 49°09' W 123°02'0 0.0
2017-Dec-11 04:30N 49°09' W 123°02'0 0.0
2017-Dec-11 04:00N 49°09' W 123°02'0 0.0
2017-Dec-11 03:30N 49°09' W 123°02'0 0.0
2017-Dec-11 03:00N 49°09' W 123°02'0 0.0
2017-Dec-11 02:30N 49°09' W 123°02'0 0.0
2017-Dec-11 02:00N 49°09' W 123°02'0 0.0
2017-Dec-11 01:30N 49°09' W 123°02'0 0.0
2017-Dec-11 01:00N 49°09' W 123°02'0 0.0
2017-Dec-11 00:30N 49°09' W 123°02'0 0.0
2017-Dec-11 00:00N 49°09' W 123°02'0 0.0
2017-Dec-10 23:30N 49°09' W 123°02'0 0.0
2017-Dec-10 23:00N 49°09' W 123°02'0 0.0
2017-Dec-10 22:30N 49°09' W 123°02'0 0.0
2017-Dec-10 22:00N 49°09' W 123°02'0 0.0
2017-Dec-10 21:30N 49°09' W 123°02'0 0.0
2017-Dec-10 21:00N 49°09' W 123°02'0 0.0
2017-Dec-10 20:30N 49°09' W 123°02'0 0.0
2017-Dec-10 20:00N 49°09' W 123°02'0 0.0
2017-Dec-10 19:30N 49°09' W 123°02'0 0.0
2017-Dec-10 19:00N 49°09' W 123°02'0 0.0
2017-Dec-10 18:30N 49°09' W 123°02'0 0.0
2017-Dec-10 18:00N 49°09' W 123°02'0 0.0
2017-Dec-10 17:30N 49°09' W 123°02'0 0.0
2017-Dec-10 17:00N 49°09' W 123°02'0 0.0
2017-Dec-10 16:30N 49°09' W 123°02'2 3.7
2017-Dec-10 16:00N 49°07' W 123°04'610.8
2017-Dec-10 15:29N 49°08' W 123°13'510.8
2017-Dec-10 15:00N 49°06' W 123°20'510.8
2017-Dec-10 14:30N 49°08' W 123°28'611.2
2017-Dec-10 14:00N 49°10' W 123°36'611.4
2017-Dec-10 13:26N 49°12' W 123°45'510.6
2017-Dec-10 12:59N 49°12' W 123°53'4 7.4
2017-Dec-10 12:30N 49°09' W 123°52'0 0.0
2017-Dec-10 12:00N 49°09' W 123°52'0 0.0
2017-Dec-10 11:27N 49°09' W 123°52'0 0.0
2017-Dec-10 10:49N 49°09' W 123°52'0 0.0
2017-Dec-10 10:30N 49°09' W 123°52'0 0.2
2017-Dec-10 09:55N 49°09' W 123°52'6 8.1
2017-Dec-10 09:13N 49°13' W 123°47'311.9
2017-Dec-10 09:00N 49°12' W 123°43'611.9
2017-Dec-10 08:27N 49°10' W 123°34'511.7
2017-Dec-10 08:00N 49°08' W 123°26'611.3
2017-Dec-10 07:30N 49°06' W 123°18'611.4
2017-Dec-10 07:00N 49°07' W 123°09'510.0
2017-Dec-10 06:30N 49°09' W 123°02'0 0.0
2017-Dec-10 06:00N 49°09' W 123°02'0 0.0
2017-Dec-10 05:30N 49°09' W 123°02'0 0.0
2017-Dec-10 05:00N 49°09' W 123°02'0 0.0
2017-Dec-10 04:30N 49°09' W 123°02'0 0.0
2017-Dec-10 04:00N 49°09' W 123°02'0 0.0
2017-Dec-10 03:30N 49°09' W 123°02'0 0.0
2017-Dec-10 03:00N 49°09' W 123°02'0 0.0
2017-Dec-10 02:30N 49°09' W 123°02'0 0.0
2017-Dec-10 02:00N 49°09' W 123°02'0 0.0
2017-Dec-10 01:30N 49°09' W 123°02'0 0.0
2017-Dec-10 01:00N 49°09' W 123°02'0 0.0
2017-Dec-10 00:30N 49°09' W 123°02'0 0.0
2017-Dec-10 00:00N 49°09' W 123°02'0 0.0
2017-Dec-09 23:30N 49°09' W 123°02'0 0.0
2017-Dec-09 23:00N 49°09' W 123°02'2 4.4
2017-Dec-09 22:30N 49°07' W 123°05'611.9
2017-Dec-09 22:00N 49°08' W 123°14'612.5
2017-Dec-09 21:30N 49°07' W 123°23'715.1
2017-Dec-09 21:00N 49°09' W 123°34'814.9
2017-Dec-09 20:30N 49°12' W 123°45'6 8.6
2017-Dec-09 19:48N 49°09' W 123°52'0 0.0
2017-Dec-09 19:17N 49°09' W 123°52'0 0.0
2017-Dec-09 16:45N 49°09' W 123°52'0 0.0
2017-Dec-09 16:30N 49°09' W 123°52'0 0.0
2017-Dec-09 16:00N 49°09' W 123°52'0 0.0
2017-Dec-09 15:19N 49°09' W 123°52'0 0.0
2017-Dec-09 14:57N 49°09' W 123°52'0 0.0
2017-Dec-09 14:28N 49°09' W 123°52'0 0.0
2017-Dec-09 13:56N 49°09' W 123°52'0 0.0
2017-Dec-09 13:28N 49°09' W 123°52'3 5.5
2017-Dec-09 13:00N 49°11' W 123°53'713.6
2017-Dec-09 12:30N 49°12' W 123°43'816.2
2017-Dec-09 12:00N 49°09' W 123°32'815.2
2017-Dec-09 11:30N 49°06' W 123°21'613.1
2017-Dec-09 11:00N 49°07' W 123°11'611.3
2017-Dec-09 10:30N 49°08' W 123°03'1 1.5
2017-Dec-09 10:00N 49°09' W 123°02'0 0.0
2017-Dec-09 09:30N 49°09' W 123°02'0 0.0
2017-Dec-09 09:01N 49°09' W 123°02'0 0.0
2017-Dec-09 08:30N 49°09' W 123°02'2 4.3
2017-Dec-09 08:00N 49°07' W 123°05'611.5
2017-Dec-09 07:30N 49°08' W 123°13'510.7
2017-Dec-09 07:00N 49°06' W 123°21'715.0
2017-Dec-09 06:30N 49°09' W 123°32'914.9
2017-Dec-09 05:55N 49°12' W 123°44'6 5.7
2017-Dec-09 04:50N 49°09' W 123°52'0 0.0
2017-Dec-09 04:30N 49°09' W 123°52'8 4.1
2017-Dec-09 02:34N 49°13' W 123°42'214.7
2017-Dec-09 02:24N 49°12' W 123°39'614.4
2017-Dec-09 02:00N 49°09' W 123°31'714.8
2017-Dec-09 01:30N 49°06' W 123°21'713.0
2017-Dec-09 01:00N 49°07' W 123°11'611.6
2017-Dec-09 00:30N 49°09' W 123°02'0 0.0
2017-Dec-09 00:00N 49°09' W 123°02'0 0.0
2017-Dec-08 23:30N 49°09' W 123°02'0 0.0
2017-Dec-08 23:00N 49°09' W 123°02'2 4.7
2017-Dec-08 22:30N 49°07' W 123°05'611.2
2017-Dec-08 22:00N 49°08' W 123°13'612.1
2017-Dec-08 21:30N 49°07' W 123°22'815.5
2017-Dec-08 20:58N 49°10' W 123°34'715.3
2017-Dec-08 20:30N 49°12' W 123°44'6 1.2
2017-Dec-08 15:22N 49°09' W 123°52'0 0.0
2017-Dec-08 15:00N 49°09' W 123°52'0 0.0
2017-Dec-08 14:28N 49°09' W 123°52'0 0.0
2017-Dec-08 13:58N 49°09' W 123°52'0 0.0
2017-Dec-08 13:27N 49°09' W 123°52'2 4.8
2017-Dec-08 12:57N 49°11' W 123°53'914.0
2017-Dec-08 12:17N 49°11' W 123°39'416.0
2017-Dec-08 12:00N 49°10' W 123°33'714.8
2017-Dec-08 11:30N 49°07' W 123°22'713.3
2017-Dec-08 11:00N 49°07' W 123°12'613.0
2017-Dec-08 10:30N 49°09' W 123°02'0 0.2
2017-Dec-08 10:01N 49°09' W 123°02'0 0.0
2017-Dec-08 09:30N 49°09' W 123°02'0 0.0
2017-Dec-08 09:00N 49°09' W 123°02'0 0.0
2017-Dec-08 08:30N 49°09' W 123°02'2 4.1
2017-Dec-08 08:00N 49°07' W 123°05'510.3
2017-Dec-08 07:30N 49°08' W 123°12'611.4
2017-Dec-08 07:00N 49°06' W 123°21'816.0
2017-Dec-08 06:30N 49°09' W 123°32'1016.0
2017-Dec-08 05:54N 49°12' W 123°46'6 3.6
2017-Dec-08 04:22N 49°09' W 123°52'2 1.7
2017-Dec-08 03:16N 49°11' W 123°53'412.4
2017-Dec-08 02:55N 49°13' W 123°48'614.7
2017-Dec-08 02:28N 49°11' W 123°39'714.1
2017-Dec-08 02:00N 49°08' W 123°29'714.6
2017-Dec-08 01:30N 49°06' W 123°18'613.0
2017-Dec-08 01:00N 49°07' W 123°09'5 9.4
2017-Dec-08 00:30N 49°09' W 123°02'0 0.0
2017-Dec-08 00:00N 49°09' W 123°02'0 0.0
2017-Dec-07 23:30N 49°09' W 123°02'0 0.0
2017-Dec-07 23:00N 49°09' W 123°02'3 5.9
2017-Dec-07 22:30N 49°07' W 123°06'510.8
2017-Dec-07 22:00N 49°08' W 123°14'612.7
2017-Dec-07 21:30N 49°07' W 123°23'815.7
2017-Dec-07 20:59N 49°10' W 123°35'6 0.7
2017-Dec-07 12:26N 49°12' W 123°43'714.4
2017-Dec-07 11:58N 49°10' W 123°33'714.3
2017-Dec-07 11:30N 49°08' W 123°24'612.8
2017-Dec-07 11:00N 49°08' W 123°14'713.6
2017-Dec-07 10:30N 49°08' W 123°04'2 3.2
2017-Dec-07 10:00N 49°09' W 123°02'0 0.0
2017-Dec-07 09:30N 49°09' W 123°02'0 0.0
2017-Dec-07 09:00N 49°09' W 123°02'0 0.0
2017-Dec-07 08:30N 49°09' W 123°02'2 4.1
2017-Dec-07 08:00N 49°07' W 123°05'510.0
2017-Dec-07 07:30N 49°07' W 123°12'5 9.9
2017-Dec-07 07:00N 49°06' W 123°19'816.4
2017-Dec-07 06:30N 49°09' W 123°31'916.8
2017-Dec-07 05:58N 49°12' W 123°44'6 2.2
2017-Dec-07 03:12N 49°11' W 123°53'413.0
2017-Dec-07 02:54N 49°13' W 123°48'614.5
2017-Dec-07 02:29N 49°11' W 123°40'714.4
2017-Dec-07 01:58N 49°08' W 123°29'714.9
2017-Dec-07 01:30N 49°06' W 123°19'612.8
2017-Dec-07 01:00N 49°07' W 123°09'510.3
2017-Dec-07 00:30N 49°09' W 123°02'0 0.0
2017-Dec-07 00:00N 49°09' W 123°02'0 0.0
2017-Dec-06 23:30N 49°09' W 123°02'0 0.0
2017-Dec-06 23:00N 49°09' W 123°02'3 5.0
2017-Dec-06 22:30N 49°07' W 123°05'510.7
2017-Dec-06 22:00N 49°08' W 123°13'611.9
2017-Dec-06 21:30N 49°06' W 123°22'815.6
2017-Dec-06 20:59N 49°09' W 123°33'  
Track history (hours):
 
Tides and Currents Weather Stations Pressure Air Temp Water Temp Dewpoint Dewpoint Depression Visibility Wind Speed Wind Dir Waves Ship Positions

Seaspan Swift

Last reported at 2017-Dec-15 14:00 UTC. Time now 2017-Dec-15 14:26 UTC.
Position N 48°41' W 123°24'.

Length 150 m; draft 4.2 m.

Type: Cargo ship. MMSI: 316033419.

Date/timePositionNaut miles runAvg speedWind from/ knotsBaromVisibWave heightAir tempDewpointWater temp
2017-Dec-15 14:00N 48°41' W 123°24'0 0.0
2017-Dec-15 13:30N 48°41' W 123°24'3 6.1
2017-Dec-15 13:00N 48°43' W 123°21'714.9
2017-Dec-15 12:31N 48°51' W 123°21'612.0
2017-Dec-15 12:00N 48°56' W 123°19'714.2
2017-Dec-15 11:30N 49°04' W 123°21'612.9
2017-Dec-15 11:00N 49°08' W 123°13'612.0
2017-Dec-15 10:30N 49°08' W 123°04'2 3.2
2017-Dec-15 10:00N 49°09' W 123°02'0 0.0
2017-Dec-15 09:30N 49°09' W 123°02'0 0.0
2017-Dec-15 09:00N 49°09' W 123°02'0 0.0
2017-Dec-15 08:30N 49°09' W 123°02'2 4.2
2017-Dec-15 08:00N 49°07' W 123°05'510.6
2017-Dec-15 07:30N 49°08' W 123°13'610.9
2017-Dec-15 07:00N 49°06' W 123°21'714.7
2017-Dec-15 06:30N 49°09' W 123°31'814.9
2017-Dec-15 05:59N 49°12' W 123°42'2 0.5
2017-Dec-15 02:30N 49°13' W 123°41'2114.0
2017-Dec-15 01:01N 49°07' W 123°10'611.0
2017-Dec-15 00:30N 49°09' W 123°02'31 5.2
2017-Dec-14 18:30N 48°41' W 123°24'0 0.0
2017-Dec-14 18:00N 48°41' W 123°24'0 0.0
2017-Dec-14 17:30N 48°41' W 123°24'0 0.0
2017-Dec-14 17:00N 48°41' W 123°24'0 0.0
2017-Dec-14 16:30N 48°41' W 123°24'0 0.0
2017-Dec-14 16:00N 48°41' W 123°24'0 0.0
2017-Dec-14 15:00N 48°41' W 123°24'0 0.0
2017-Dec-14 14:30N 48°41' W 123°24'0 0.0
2017-Dec-14 14:00N 48°41' W 123°24'0 0.0
2017-Dec-14 13:30N 48°41' W 123°24'0 0.8
2017-Dec-14 13:00N 48°41' W 123°24'5 9.9
2017-Dec-14 12:30N 48°46' W 123°21'611.7
2017-Dec-14 12:00N 48°52' W 123°19'815.0
2017-Dec-14 11:30N 48°59' W 123°19'714.0
2017-Dec-14 11:00N 49°06' W 123°18'612.7
2017-Dec-14 10:30N 49°07' W 123°09'5 9.5
2017-Dec-14 10:00N 49°09' W 123°02'0 0.0
2017-Dec-14 09:30N 49°09' W 123°02'0 0.0
2017-Dec-14 09:00N 49°09' W 123°02'0 0.0
2017-Dec-14 08:30N 49°09' W 123°02'1 1.2
2017-Dec-14 08:00N 49°08' W 123°03'611.1
2017-Dec-14 07:29N 49°07' W 123°11'611.9
2017-Dec-14 07:00N 49°06' W 123°20'714.8
2017-Dec-14 06:30N 49°09' W 123°30'815.0
2017-Dec-14 06:00N 49°11' W 123°41'714.2
2017-Dec-14 05:30N 49°12' W 123°52'4 7.3
2017-Dec-14 05:00N 49°09' W 123°52'0 0.0
2017-Dec-14 03:43N 49°09' W 123°52'1 1.9
2017-Dec-14 03:19N 49°09' W 123°53'510.7
2017-Dec-14 02:52N 49°13' W 123°48'514.4
2017-Dec-14 02:30N 49°12' W 123°40'613.1
2017-Dec-14 02:00N 49°10' W 123°31'713.9
2017-Dec-14 01:30N 49°07' W 123°22'713.7
2017-Dec-14 01:00N 49°07' W 123°11'612.3
2017-Dec-14 00:30N 49°09' W 123°02'0 0.2
2017-Dec-14 00:00N 49°09' W 123°02'0 0.0
2017-Dec-13 23:30N 49°09' W 123°02'0 0.0
2017-Dec-13 23:00N 49°09' W 123°02'3 5.1
2017-Dec-13 22:30N 49°07' W 123°05'714.2
2017-Dec-13 22:00N 49°07' W 123°16'611.9
2017-Dec-13 21:30N 49°01' W 123°18'815.1
2017-Dec-13 21:00N 48°54' W 123°18'510.6
2017-Dec-13 20:30N 48°49' W 123°20'714.1
2017-Dec-13 20:00N 48°42' W 123°22'2 3.1
2017-Dec-13 19:30N 48°41' W 123°24'0 0.0
2017-Dec-13 19:00N 48°41' W 123°24'0 0.0
2017-Dec-13 18:31N 48°41' W 123°24'0 0.0
2017-Dec-13 18:00N 48°41' W 123°24'0 0.0
2017-Dec-13 17:30N 48°41' W 123°24'0 0.0
2017-Dec-13 17:00N 48°41' W 123°24'0 0.0
2017-Dec-13 16:30N 48°41' W 123°24'0 0.0
2017-Dec-13 16:00N 48°41' W 123°24'0 0.0
2017-Dec-13 15:30N 48°41' W 123°24'0 0.0
2017-Dec-13 15:00N 48°41' W 123°24'0 0.0
2017-Dec-13 14:30N 48°41' W 123°24'0 0.0
2017-Dec-13 14:00N 48°41' W 123°24'0 0.0
2017-Dec-13 13:30N 48°41' W 123°24'1 1.3
2017-Dec-13 13:00N 48°42' W 123°23'611.8
2017-Dec-13 12:31N 48°47' W 123°21'612.8
2017-Dec-13 12:00N 48°53' W 123°18'815.1
2017-Dec-13 11:31N 49°01' W 123°20'713.0
2017-Dec-13 11:00N 49°07' W 123°17'713.3
2017-Dec-13 10:30N 49°07' W 123°07'4 7.2
2017-Dec-13 10:00N 49°09' W 123°02'0 0.0
2017-Dec-13 09:30N 49°09' W 123°02'0 0.0
2017-Dec-13 09:00N 49°09' W 123°02'0 0.0
2017-Dec-13 08:30N 49°09' W 123°02'0 0.3
2017-Dec-13 08:00N 49°09' W 123°02'510.1
2017-Dec-13 07:30N 49°06' W 123°09'611.7
2017-Dec-13 07:00N 49°06' W 123°18'713.7
2017-Dec-13 06:30N 49°08' W 123°28'814.6
2017-Dec-13 05:57N 49°11' W 123°40'8 5.0
2017-Dec-13 04:15N 49°09' W 123°52'0 0.2
2017-Dec-13 03:22N 49°09' W 123°52'5 9.6
2017-Dec-13 02:52N 49°13' W 123°49'614.2
2017-Dec-13 02:29N 49°12' W 123°41'714.2
2017-Dec-13 02:00N 49°09' W 123°31'714.1
2017-Dec-13 01:31N 49°07' W 123°21'714.2
2017-Dec-13 01:00N 49°07' W 123°10'611.4
2017-Dec-13 00:30N 49°09' W 123°02'0 0.2
2017-Dec-13 00:00N 49°09' W 123°02'0 0.0
2017-Dec-12 23:30N 49°09' W 123°02'0 0.0
2017-Dec-12 23:00N 49°09' W 123°02'2 3.0
2017-Dec-12 22:30N 49°08' W 123°04'713.4
2017-Dec-12 22:00N 49°08' W 123°14'611.8
2017-Dec-12 21:30N 49°03' W 123°19'815.1
2017-Dec-12 21:00N 48°55' W 123°18'510.9
2017-Dec-12 20:30N 48°50' W 123°21'714.6
2017-Dec-12 20:00N 48°43' W 123°21'3 1.5
2017-Dec-12 18:14N 48°41' W 123°24'0 0.0
2017-Dec-12 17:55N 48°41' W 123°24'0 0.0
2017-Dec-12 16:59N 48°41' W 123°24'0 0.0
2017-Dec-12 16:17N 48°41' W 123°24'0 0.0
2017-Dec-12 15:59N 48°41' W 123°24'0 0.0
2017-Dec-12 15:26N 48°41' W 123°24'0 0.0
2017-Dec-12 13:24N 48°41' W 123°24'1 3.9
2017-Dec-12 13:01N 48°42' W 123°22'714.0
2017-Dec-12 12:30N 48°49' W 123°21'611.6
2017-Dec-12 12:00N 48°54' W 123°18'714.1
2017-Dec-12 11:30N 49°01' W 123°20'713.1
2017-Dec-12 11:00N 49°07' W 123°16'713.9
2017-Dec-12 10:30N 49°07' W 123°06'3 5.8
2017-Dec-12 10:00N 49°09' W 123°02'0 0.0
2017-Dec-12 09:29N 49°09' W 123°02'0 0.0
2017-Dec-12 09:00N 49°09' W 123°02'0 0.0
2017-Dec-12 08:30N 49°09' W 123°02'3 5.4
2017-Dec-12 08:00N 49°07' W 123°05'612.2
2017-Dec-12 07:30N 49°08' W 123°15'612.0
2017-Dec-12 07:00N 49°07' W 123°24'713.8
2017-Dec-12 06:30N 49°10' W 123°34'713.8
2017-Dec-12 06:00N 49°12' W 123°44'6 3.2
2017-Dec-12 03:57N 49°09' W 123°52'5 4.9
2017-Dec-12 02:52N 49°13' W 123°48'513.5
2017-Dec-12 02:29N 49°12' W 123°40'613.6
2017-Dec-12 02:01N 49°10' W 123°31'713.6
2017-Dec-12 01:31N 49°07' W 123°22'713.1
2017-Dec-12 01:00N 49°07' W 123°12'612.6
2017-Dec-12 00:30N 49°09' W 123°02'0 0.4
2017-Dec-12 00:00N 49°09' W 123°02'0 0.0
2017-Dec-11 23:30N 49°09' W 123°02'0 0.0
2017-Dec-11 23:00N 49°09' W 123°02'4 7.2
2017-Dec-11 22:31N 49°07' W 123°07'612.6
2017-Dec-11 22:00N 49°07' W 123°16'510.5
2017-Dec-11 21:30N 49°02' W 123°17'714.7
2017-Dec-11 21:00N 48°54' W 123°18'510.5
2017-Dec-11 20:30N 48°49' W 123°20'714.4
2017-Dec-11 20:00N 48°42' W 123°22'2 4.0
2017-Dec-11 19:30N 48°41' W 123°24'0 0.0
2017-Dec-11 18:59N 48°41' W 123°24'0 0.0
2017-Dec-11 18:29N 48°41' W 123°24'0 0.0
2017-Dec-11 16:45N 48°41' W 123°24'0 0.0
2017-Dec-11 15:28N 48°41' W 123°24'0 0.0
2017-Dec-11 14:43N 48°41' W 123°24'0 0.0
2017-Dec-11 14:15N 48°41' W 123°24'0 0.0
2017-Dec-11 13:29N 48°41' W 123°24'0 0.0
2017-Dec-11 12:59N 48°41' W 123°24'0 0.0
2017-Dec-11 12:24N 48°41' W 123°24'0 0.0
2017-Dec-11 11:53N 48°41' W 123°24'0 0.0
2017-Dec-11 11:30N 48°41' W 123°24'0 0.8
2017-Dec-11 10:54N 48°42' W 123°24'410.3
2017-Dec-11 10:30N 48°45' W 123°21'612.7
2017-Dec-11 10:00N 48°51' W 123°21'611.6
2017-Dec-11 09:30N 48°57' W 123°18'612.7
2017-Dec-11 09:00N 49°03' W 123°19'612.6
2017-Dec-11 08:30N 49°08' W 123°13'612.9
2017-Dec-11 08:01N 49°08' W 123°03'1 2.1
2017-Dec-11 07:30N 49°09' W 123°02'0 0.0
2017-Dec-11 07:00N 49°09' W 123°02'0 0.0
2017-Dec-11 06:30N 49°09' W 123°02'0 0.0
2017-Dec-11 06:00N 49°09' W 123°02'0 0.0
2017-Dec-11 05:30N 49°09' W 123°02'0 0.0
2017-Dec-11 05:00N 49°09' W 123°02'0 0.0
2017-Dec-11 04:30N 49°09' W 123°02'0 0.0
2017-Dec-11 04:00N 49°09' W 123°02'0 0.0
2017-Dec-11 03:30N 49°09' W 123°02'0 0.0
2017-Dec-11 03:00N 49°09' W 123°02'0 0.0
2017-Dec-11 02:30N 49°09' W 123°02'0 0.0
2017-Dec-11 02:00N 49°09' W 123°02'0 0.0
2017-Dec-11 01:30N 49°09' W 123°02'0 0.0
2017-Dec-11 01:00N 49°09' W 123°02'0 0.0
2017-Dec-11 00:30N 49°09' W 123°02'0 0.0
2017-Dec-11 00:00N 49°09' W 123°02'0 0.0
2017-Dec-10 23:30N 49°09' W 123°02'0 0.0
2017-Dec-10 23:00N 49°09' W 123°02'0 0.0
2017-Dec-10 22:30N 49°09' W 123°02'0 0.0
2017-Dec-10 22:00N 49°09' W 123°02'0 0.0
2017-Dec-10 21:30N 49°09' W 123°02'0 0.0
2017-Dec-10 21:00N 49°09' W 123°02'0 0.0
2017-Dec-10 20:30N 49°09' W 123°02'0 0.0
2017-Dec-10 20:00N 49°09' W 123°02'0 0.0
2017-Dec-10 19:30N 49°09' W 123°02'0 0.0
2017-Dec-10 19:00N 49°09' W 123°02'0 0.0
2017-Dec-10 18:30N 49°09' W 123°02'0 0.0
2017-Dec-10 18:00N 49°09' W 123°02'0 0.0
2017-Dec-10 17:30N 49°09' W 123°02'0 0.0
2017-Dec-10 17:00N 49°09' W 123°02'0 0.0
2017-Dec-10 16:30N 49°09' W 123°02'2 3.7
2017-Dec-10 16:00N 49°07' W 123°04'610.8
2017-Dec-10 15:29N 49°08' W 123°13'510.8
2017-Dec-10 15:00N 49°06' W 123°20'510.8
2017-Dec-10 14:30N 49°08' W 123°28'611.2
2017-Dec-10 14:00N 49°10' W 123°36'611.4
2017-Dec-10 13:26N 49°12' W 123°45'510.6
2017-Dec-10 12:59N 49°12' W 123°53'4 7.4
2017-Dec-10 12:30N 49°09' W 123°52'0 0.0
2017-Dec-10 12:00N 49°09' W 123°52'0 0.0
2017-Dec-10 11:27N 49°09' W 123°52'0 0.0
2017-Dec-10 10:49N 49°09' W 123°52'0 0.0
2017-Dec-10 10:30N 49°09' W 123°52'0 0.2
2017-Dec-10 09:55N 49°09' W 123°52'6 8.1
2017-Dec-10 09:13N 49°13' W 123°47'311.9
2017-Dec-10 09:00N 49°12' W 123°43'611.9
2017-Dec-10 08:27N 49°10' W 123°34'511.7
2017-Dec-10 08:00N 49°08' W 123°26'611.3
2017-Dec-10 07:30N 49°06' W 123°18'611.4
2017-Dec-10 07:00N 49°07' W 123°09'510.0
2017-Dec-10 06:30N 49°09' W 123°02'0 0.0
2017-Dec-10 06:00N 49°09' W 123°02'0 0.0
2017-Dec-10 05:30N 49°09' W 123°02'0 0.0
2017-Dec-10 05:00N 49°09' W 123°02'0 0.0
2017-Dec-10 04:30N 49°09' W 123°02'0 0.0
2017-Dec-10 04:00N 49°09' W 123°02'0 0.0
2017-Dec-10 03:30N 49°09' W 123°02'0 0.0
2017-Dec-10 03:00N 49°09' W 123°02'0 0.0
2017-Dec-10 02:30N 49°09' W 123°02'0 0.0
2017-Dec-10 02:00N 49°09' W 123°02'0 0.0
2017-Dec-10 01:30N 49°09' W 123°02'0 0.0
2017-Dec-10 01:00N 49°09' W 123°02'0 0.0
2017-Dec-10 00:30N 49°09' W 123°02'0 0.0
2017-Dec-10 00:00N 49°09' W 123°02'0 0.0
2017-Dec-09 23:30N 49°09' W 123°02'0 0.0
2017-Dec-09 23:00N 49°09' W 123°02'2 4.4
2017-Dec-09 22:30N 49°07' W 123°05'611.9
2017-Dec-09 22:00N 49°08' W 123°14'612.5
2017-Dec-09 21:30N 49°07' W 123°23'715.1
2017-Dec-09 21:00N 49°09' W 123°34'814.9
2017-Dec-09 20:30N 49°12' W 123°45'6 8.6
2017-Dec-09 19:48N 49°09' W 123°52'0 0.0
2017-Dec-09 19:17N 49°09' W 123°52'0 0.0
2017-Dec-09 16:45N 49°09' W 123°52'0 0.0
2017-Dec-09 16:30N 49°09' W 123°52'0 0.0
2017-Dec-09 16:00N 49°09' W 123°52'0 0.0
2017-Dec-09 15:19N 49°09' W 123°52'0 0.0
2017-Dec-09 14:57N 49°09' W 123°52'0 0.0
2017-Dec-09 14:28N 49°09' W 123°52'0 0.0
2017-Dec-09 13:56N 49°09' W 123°52'0 0.0
2017-Dec-09 13:28N 49°09' W 123°52'3 5.5
2017-Dec-09 13:00N 49°11' W 123°53'713.6
2017-Dec-09 12:30N 49°12' W 123°43'816.2
2017-Dec-09 12:00N 49°09' W 123°32'815.2
2017-Dec-09 11:30N 49°06' W 123°21'613.1
2017-Dec-09 11:00N 49°07' W 123°11'611.3
2017-Dec-09 10:30N 49°08' W 123°03'1 1.5
2017-Dec-09 10:00N 49°09' W 123°02'0 0.0
2017-Dec-09 09:30N 49°09' W 123°02'0 0.0
2017-Dec-09 09:01N 49°09' W 123°02'0 0.0
2017-Dec-09 08:30N 49°09' W 123°02'2 4.3
2017-Dec-09 08:00N 49°07' W 123°05'611.5
2017-Dec-09 07:30N 49°08' W 123°13'510.7
2017-Dec-09 07:00N 49°06' W 123°21'715.0
2017-Dec-09 06:30N 49°09' W 123°32'914.9
2017-Dec-09 05:55N 49°12' W 123°44'6 5.7
2017-Dec-09 04:50N 49°09' W 123°52'0 0.0
2017-Dec-09 04:30N 49°09' W 123°52'8 4.1
2017-Dec-09 02:34N 49°13' W 123°42'214.7
2017-Dec-09 02:24N 49°12' W 123°39'614.4
2017-Dec-09 02:00N 49°09' W 123°31'714.8
2017-Dec-09 01:30N 49°06' W 123°21'713.0
2017-Dec-09 01:00N 49°07' W 123°11'611.6
2017-Dec-09 00:30N 49°09' W 123°02'0 0.0
2017-Dec-09 00:00N 49°09' W 123°02'0 0.0
2017-Dec-08 23:30N 49°09' W 123°02'0 0.0
2017-Dec-08 23:00N 49°09' W 123°02'2 4.7
2017-Dec-08 22:30N 49°07' W 123°05'611.2
2017-Dec-08 22:00N 49°08' W 123°13'612.1
2017-Dec-08 21:30N 49°07' W 123°22'815.5
2017-Dec-08 20:58N 49°10' W 123°34'715.3
2017-Dec-08 20:30N 49°12' W 123°44'6 1.2
2017-Dec-08 15:22N 49°09' W 123°52'0 0.0
2017-Dec-08 15:00N 49°09' W 123°52'0 0.0
2017-Dec-08 14:28N 49°09' W 123°52'0 0.0
2017-Dec-08 13:58N 49°09' W 123°52'0 0.0
2017-Dec-08 13:27N 49°09' W 123°52'2 4.8
2017-Dec-08 12:57N 49°11' W 123°53'914.0
2017-Dec-08 12:17N 49°11' W 123°39'416.0
2017-Dec-08 12:00N 49°10' W 123°33'714.8
2017-Dec-08 11:30N 49°07' W 123°22'713.3
2017-Dec-08 11:00N 49°07' W 123°12'613.0
2017-Dec-08 10:30N 49°09' W 123°02'0 0.2
2017-Dec-08 10:01N 49°09' W 123°02'0 0.0
2017-Dec-08 09:30N 49°09' W 123°02'0 0.0
2017-Dec-08 09:00N 49°09' W 123°02'0 0.0
2017-Dec-08 08:30N 49°09' W 123°02'2 4.1
2017-Dec-08 08:00N 49°07' W 123°05'510.3
2017-Dec-08 07:30N 49°08' W 123°12'611.4
2017-Dec-08 07:00N 49°06' W 123°21'816.0
2017-Dec-08 06:30N 49°09' W 123°32'1016.0
2017-Dec-08 05:54N 49°12' W 123°46'6 3.6
2017-Dec-08 04:22N 49°09' W 123°52'2 1.7
2017-Dec-08 03:16N 49°11' W 123°53'412.4
2017-Dec-08 02:55N 49°13' W 123°48'614.7
2017-Dec-08 02:28N 49°11' W 123°39'714.1
2017-Dec-08 02:00N 49°08' W 123°29'714.6
2017-Dec-08 01:30N 49°06' W 123°18'613.0
2017-Dec-08 01:00N 49°07' W 123°09'5 9.4
2017-Dec-08 00:30N 49°09' W 123°02'0 0.0
2017-Dec-08 00:00N 49°09' W 123°02'0 0.0
2017-Dec-07 23:30N 49°09' W 123°02'0 0.0
2017-Dec-07 23:00N 49°09' W 123°02'3 5.9
2017-Dec-07 22:30N 49°07' W 123°06'510.8
2017-Dec-07 22:00N 49°08' W 123°14'612.7
2017-Dec-07 21:30N 49°07' W 123°23'815.7
2017-Dec-07 20:59N 49°10' W 123°35'6 0.7
2017-Dec-07 12:26N 49°12' W 123°43'714.4
2017-Dec-07 11:58N 49°10' W 123°33'714.3
2017-Dec-07 11:30N 49°08' W 123°24'612.8
2017-Dec-07 11:00N 49°08' W 123°14'713.6
2017-Dec-07 10:30N 49°08' W 123°04'2 3.2
2017-Dec-07 10:00N 49°09' W 123°02'0 0.0
2017-Dec-07 09:30N 49°09' W 123°02'0 0.0
2017-Dec-07 09:00N 49°09' W 123°02'0 0.0
2017-Dec-07 08:30N 49°09' W 123°02'2 4.1
2017-Dec-07 08:00N 49°07' W 123°05'510.0
2017-Dec-07 07:30N 49°07' W 123°12'5 9.9
2017-Dec-07 07:00N 49°06' W 123°19'816.4
2017-Dec-07 06:30N 49°09' W 123°31'916.8
2017-Dec-07 05:58N 49°12' W 123°44'6 2.2
2017-Dec-07 03:12N 49°11' W 123°53'413.0
2017-Dec-07 02:54N 49°13' W 123°48'614.5
2017-Dec-07 02:29N 49°11' W 123°40'714.4
2017-Dec-07 01:58N 49°08' W 123°29'714.9
2017-Dec-07 01:30N 49°06' W 123°19'612.8
2017-Dec-07 01:00N 49°07' W 123°09'510.3
2017-Dec-07 00:30N 49°09' W 123°02'0 0.0
2017-Dec-07 00:00N 49°09' W 123°02'0 0.0
2017-Dec-06 23:30N 49°09' W 123°02'0 0.0
2017-Dec-06 23:00N 49°09' W 123°02'3 5.0
2017-Dec-06 22:30N 49°07' W 123°05'510.7
2017-Dec-06 22:00N 49°08' W 123°13'611.9
2017-Dec-06 21:30N 49°06' W 123°22'815.6
2017-Dec-06 20:59N 49°09' W 123°33'  

Dump ship's entire track history